createdAt,value
2019-04-01T00:00:20.900Z,77.10
2019-04-01T00:02:24.047Z,77.50
2019-04-01T00:04:25.193Z,77.70
2019-04-01T00:06:26.649Z,77.10
2019-04-01T00:08:28.105Z,77.70
2019-04-01T00:10:29.244Z,78.50
2019-04-01T00:12:30.385Z,78.60
2019-04-01T00:14:32.025Z,78.90
2019-04-01T00:16:33.176Z,78.90
2019-04-01T00:18:34.876Z,78.90
2019-04-01T00:20:36.026Z,79.20
2019-04-01T00:22:37.187Z,78.00
2019-04-01T00:24:38.417Z,78.50
2019-04-01T00:26:39.553Z,77.80
2019-04-01T00:28:40.706Z,77.60
2019-04-01T00:30:41.949Z,78.00
2019-04-01T00:32:43.436Z,78.20
2019-04-01T00:34:44.591Z,77.40
2019-04-01T00:36:45.722Z,78.10
2019-04-01T00:38:47.135Z,78.20
2019-04-01T00:40:49.402Z,78.40
2019-04-01T00:42:52.792Z,78.70
2019-04-01T00:44:53.933Z,78.00
2019-04-01T00:46:55.098Z,77.80
2019-04-01T00:48:56.775Z,79.00
2019-04-01T00:50:58.308Z,77.80
2019-04-01T00:52:59.502Z,77.60
2019-04-01T00:55:00.911Z,77.00
2019-04-01T00:57:02.409Z,77.40
2019-04-01T00:59:03.561Z,78.00
2019-04-01T01:01:05.015Z,78.50
2019-04-01T01:03:06.150Z,78.60
2019-04-01T01:05:07.742Z,78.80
2019-04-01T01:07:09.037Z,78.80
2019-04-01T01:09:10.190Z,77.70
2019-04-01T01:11:11.334Z,77.80
2019-04-01T01:13:13.082Z,77.10
2019-04-01T01:15:14.428Z,77.70
2019-04-01T01:17:15.952Z,78.10
2019-04-01T01:19:17.705Z,78.90
2019-04-01T01:21:19.273Z,79.00
2019-04-01T01:23:20.428Z,79.80
2019-04-01T01:25:21.846Z,79.20
2019-04-01T01:27:22.984Z,79.20
2019-04-01T01:29:24.161Z,79.00
2019-04-01T01:31:25.580Z,79.60
2019-04-01T01:33:27.022Z,79.70
2019-04-01T01:35:28.664Z,80.10
2019-04-01T01:37:29.682Z,80.70
2019-04-01T01:39:30.833Z,79.60
2019-04-01T01:41:32.130Z,79.30
2019-04-01T01:43:33.523Z,78.90
2019-04-01T01:45:34.980Z,79.20
2019-04-01T01:47:36.122Z,79.10
2019-04-01T01:49:37.335Z,79.70
2019-04-01T01:51:38.490Z,79.40
2019-04-01T01:53:41.645Z,79.40
2019-04-01T01:55:42.694Z,78.50
2019-04-01T01:57:44.174Z,77.50
2019-04-01T01:59:45.305Z,76.70
2019-04-01T02:01:46.457Z,77.30
2019-04-01T02:03:47.593Z,76.10
2019-04-01T02:05:48.741Z,75.90
2019-04-01T02:07:49.888Z,75.70
2019-04-01T02:09:51.318Z,75.80
2019-04-01T02:11:52.869Z,75.90
2019-04-01T02:13:54.417Z,77.10
2019-04-01T02:15:55.831Z,76.40
2019-04-01T02:17:56.972Z,77.50
2019-04-01T02:19:58.225Z,76.50
2019-04-01T02:21:59.369Z,76.60
2019-04-01T02:24:00.525Z,76.60
2019-04-01T02:26:01.666Z,76.40
2019-04-01T02:28:03.207Z,76.50
2019-04-01T02:30:04.744Z,76.40
2019-04-01T02:32:06.208Z,76.40
2019-04-01T02:34:07.715Z,76.40
2019-04-01T02:36:09.229Z,76.40
2019-04-01T02:38:10.363Z,76.30
2019-04-01T02:40:11.667Z,76.30
2019-04-01T02:42:12.809Z,76.40
2019-04-01T02:44:13.958Z,76.40
2019-04-01T02:46:15.119Z,76.40
2019-04-01T02:48:16.504Z,76.60
2019-04-01T02:50:17.897Z,76.60
2019-04-01T02:52:19.054Z,76.50
2019-04-01T02:54:20.394Z,77.50
2019-04-01T02:56:21.609Z,76.90
2019-04-01T02:58:22.781Z,77.00
2019-04-01T03:00:24.218Z,77.40
2019-04-01T03:02:25.657Z,78.80
2019-04-01T03:04:26.798Z,79.00
2019-04-01T03:06:28.241Z,79.70
2019-04-01T03:08:29.792Z,78.90
2019-04-01T03:10:31.238Z,78.80
2019-04-01T03:12:32.697Z,79.40
2019-04-01T03:14:34.346Z,78.20
2019-04-01T03:16:35.557Z,79.00
2019-04-01T03:18:36.791Z,79.00
2019-04-01T03:20:37.927Z,78.50
2019-04-01T03:22:39.079Z,79.00
2019-04-01T03:25:02.467Z,79.10
2019-04-01T03:27:04.317Z,79.00
2019-04-01T03:29:05.998Z,79.20
2019-04-01T03:31:07.222Z,78.90
2019-04-01T03:33:08.374Z,78.90
2019-04-01T03:35:09.998Z,78.60
2019-04-01T03:37:11.445Z,78.80
2019-04-01T03:39:12.589Z,81.00
2019-04-01T03:41:13.817Z,79.00
2019-04-01T03:43:15.381Z,79.60
2019-04-01T03:45:16.390Z,79.40
2019-04-01T03:47:17.972Z,80.20
2019-04-01T03:49:19.431Z,80.30
2019-04-01T03:51:20.854Z,82.60
2019-04-01T03:53:22.081Z,83.10
2019-04-01T03:55:23.245Z,82.30
2019-04-01T03:57:24.715Z,81.60
2019-04-01T03:59:26.090Z,80.60
2019-04-01T04:01:30.405Z,80.40
2019-04-01T04:03:30.373Z,80.10
2019-04-01T04:05:31.522Z,80.40
2019-04-01T04:07:32.946Z,80.30
2019-04-01T04:09:34.501Z,80.20
2019-04-01T04:11:37.136Z,79.90
2019-04-01T04:13:38.294Z,79.80
2019-04-01T04:15:39.430Z,79.60
2019-04-01T04:17:41.106Z,79.70
2019-04-01T04:19:42.333Z,80.10
2019-04-01T04:21:43.549Z,80.20
2019-04-01T04:23:45.031Z,80.60
2019-04-01T04:25:48.069Z,81.80
2019-04-01T04:27:51.137Z,82.70
2019-04-01T04:29:52.275Z,82.00
2019-04-01T04:31:53.474Z,81.70
2019-04-01T04:33:54.639Z,81.40
2019-04-01T04:35:57.803Z,81.30
2019-04-01T04:37:59.074Z,80.90
2019-04-01T04:40:00.608Z,80.90
2019-04-01T04:42:03.649Z,80.80
2019-04-01T04:44:04.795Z,81.10
2019-04-01T04:46:06.051Z,82.10
2019-04-01T04:48:07.206Z,82.90
2019-04-01T04:50:08.643Z,83.20
2019-04-01T04:52:09.793Z,83.10
2019-04-01T04:54:10.929Z,82.40
2019-04-01T04:56:12.060Z,82.00
2019-04-01T04:58:13.225Z,81.90
2019-04-01T05:00:14.577Z,81.80
2019-04-01T05:02:15.809Z,81.80
2019-04-01T05:04:17.198Z,81.60
2019-04-01T05:06:18.685Z,81.30
2019-04-01T05:08:20.254Z,81.80
2019-04-01T05:10:21.388Z,82.30
2019-04-01T05:12:22.911Z,82.20
2019-04-01T05:14:23.984Z,82.90
2019-04-01T05:16:25.545Z,83.50
2019-04-01T05:18:26.723Z,84.90
2019-04-01T05:20:30.425Z,84.40
2019-04-01T05:22:32.538Z,84.90
2019-04-01T05:24:34.581Z,85.00
2019-04-01T05:26:35.718Z,84.80
2019-04-01T05:28:38.275Z,84.40
2019-04-01T05:30:40.154Z,84.50
2019-04-01T05:32:41.800Z,84.40
2019-04-01T05:34:43.317Z,84.60
2019-04-01T05:36:45.489Z,84.20
2019-04-01T05:38:47.057Z,84.40
2019-04-01T05:40:48.201Z,84.20
2019-04-01T05:42:49.353Z,84.10
2019-04-01T05:44:50.483Z,85.40
2019-04-01T05:46:51.614Z,84.80
2019-04-01T05:48:52.774Z,85.40
2019-04-01T05:50:54.205Z,86.80
2019-04-01T05:52:55.461Z,86.50
2019-04-01T05:54:56.700Z,87.00
2019-04-01T05:56:57.933Z,87.90
2019-04-01T05:58:59.164Z,87.40
2019-04-01T06:01:02.314Z,87.10
2019-04-01T06:03:03.606Z,87.00
2019-04-01T06:05:05.340Z,87.10
2019-04-01T06:07:06.356Z,87.70
2019-04-01T06:09:07.521Z,87.20
2019-04-01T06:11:08.762Z,86.80
2019-04-01T06:13:10.321Z,86.20
2019-04-01T06:15:11.687Z,86.40
2019-04-01T06:17:12.920Z,87.00
2019-04-01T06:19:14.153Z,87.70
2019-04-01T06:21:15.483Z,87.40
2019-04-01T06:23:16.741Z,87.30
2019-04-01T06:25:17.900Z,86.60
2019-04-01T06:27:19.428Z,87.10
2019-04-01T06:29:20.539Z,86.50
2019-04-01T06:31:22.047Z,87.90
2019-04-01T06:33:23.247Z,85.90
2019-04-01T06:35:24.702Z,86.40
2019-04-01T06:37:25.841Z,86.40
2019-04-01T06:39:27.140Z,86.80
2019-04-01T06:41:28.269Z,86.20
2019-04-01T06:43:29.594Z,85.50
2019-04-01T06:45:31.016Z,85.10
2019-04-01T06:47:32.238Z,85.90
2019-04-01T06:49:33.875Z,85.30
2019-04-01T06:51:34.941Z,85.00
2019-04-01T06:53:36.378Z,85.10
2019-04-01T06:55:37.758Z,85.50
2019-04-01T06:57:39.448Z,84.20
2019-04-01T06:59:40.515Z,83.70
2019-04-01T07:01:42.281Z,83.30
2019-04-01T07:03:43.527Z,82.10
2019-04-01T07:05:44.665Z,82.70
2019-04-01T07:07:45.917Z,83.20
2019-04-01T07:09:50.529Z,82.60
2019-04-01T07:11:51.258Z,81.60
2019-04-01T07:13:52.401Z,82.90
2019-04-01T07:15:53.537Z,81.20
2019-04-01T07:17:54.760Z,81.00
2019-04-01T07:19:55.925Z,81.30
2019-04-01T07:21:57.369Z,80.20
2019-04-01T07:23:58.692Z,80.30
2019-04-01T07:25:59.926Z,79.60
2019-04-01T07:28:01.913Z,79.50
2019-04-01T07:30:05.329Z,78.80
2019-04-01T07:32:06.530Z,78.00
2019-04-01T07:34:07.676Z,77.50
2019-04-01T07:36:09.229Z,76.50
2019-04-01T07:38:10.453Z,77.20
2019-04-01T07:40:13.919Z,77.80
2019-04-01T07:42:14.886Z,76.20
2019-04-01T07:44:16.041Z,75.60
2019-04-01T07:46:17.177Z,74.50
2019-04-01T07:48:18.449Z,75.30
2019-04-01T07:50:19.623Z,74.60
2019-04-01T07:52:21.113Z,74.30
2019-04-01T07:54:22.561Z,74.10
2019-04-01T07:56:23.706Z,74.40
2019-04-01T07:58:24.961Z,73.20
2019-04-01T08:00:26.489Z,73.10
2019-04-01T08:02:27.941Z,72.30
2019-04-01T08:04:29.088Z,72.20
2019-04-01T08:06:30.450Z,72.30
2019-04-01T08:08:31.647Z,71.40
2019-04-01T08:10:32.796Z,71.20
2019-04-01T08:12:34.250Z,72.80
2019-04-01T08:14:35.689Z,70.40
2019-04-01T08:16:36.929Z,70.10
2019-04-01T08:18:38.387Z,70.30
2019-04-01T08:20:39.838Z,70.60
2019-04-01T08:22:43.282Z,70.00
2019-04-01T08:24:44.371Z,70.40
2019-04-01T08:26:45.593Z,69.30
2019-04-01T08:28:46.747Z,68.90
2019-04-01T08:30:48.083Z,68.70
2019-04-01T08:32:49.230Z,68.60
2019-04-01T08:34:50.584Z,68.00
2019-04-01T08:36:51.831Z,68.50
2019-04-01T08:38:55.432Z,67.20
2019-04-01T08:40:56.449Z,66.70
2019-04-01T08:42:57.597Z,66.90
2019-04-01T08:44:59.038Z,66.80
2019-04-01T08:47:00.622Z,66.10
2019-04-01T08:49:01.780Z,66.10
2019-04-01T08:51:03.017Z,66.50
2019-04-01T08:53:04.153Z,64.70
2019-04-01T08:55:05.961Z,65.20
2019-04-01T08:57:07.105Z,65.40
2019-04-01T08:59:08.243Z,62.70
2019-04-01T09:01:09.693Z,63.60
2019-04-01T09:03:10.939Z,64.20
2019-04-01T09:05:12.582Z,64.30
2019-04-01T09:07:13.637Z,64.10
2019-04-01T09:09:14.835Z,63.70
2019-04-01T09:11:16.181Z,63.70
2019-04-01T09:13:17.334Z,63.90
2019-04-01T09:15:18.903Z,61.40
2019-04-01T09:17:20.743Z,62.10
2019-04-01T09:19:21.881Z,60.60
2019-04-01T09:21:23.060Z,59.60
2019-04-01T09:23:24.199Z,60.70
2019-04-01T09:25:25.345Z,60.50
2019-04-01T09:27:26.481Z,59.60
2019-04-01T09:29:28.003Z,59.80
2019-04-01T09:31:29.197Z,58.60
2019-04-01T09:33:30.690Z,59.80
2019-04-01T09:35:31.837Z,58.40
2019-04-01T09:37:32.980Z,57.30
2019-04-01T09:39:34.424Z,56.90
2019-04-01T09:41:35.576Z,55.30
2019-04-01T09:43:37.098Z,55.20
2019-04-01T09:45:38.647Z,55.30
2019-04-01T09:47:40.289Z,54.30
2019-04-01T09:49:42.021Z,55.10
2019-04-01T09:51:48.867Z,55.40
2019-04-01T09:53:47.557Z,52.20
2019-04-01T09:55:49.253Z,52.60
2019-04-01T09:57:51.026Z,52.90
2019-04-01T09:59:52.881Z,52.00
2019-04-01T10:01:54.461Z,52.00
2019-04-01T10:03:55.679Z,52.60
2019-04-01T10:05:57.121Z,53.60
2019-04-01T10:07:58.589Z,53.10
2019-04-01T10:09:59.849Z,52.10
2019-04-01T10:12:01.000Z,52.80
2019-04-01T10:14:02.695Z,54.00
2019-04-01T10:16:03.725Z,52.20
2019-04-01T10:18:04.864Z,52.80
2019-04-01T10:20:07.395Z,53.50
2019-04-01T10:22:08.541Z,51.70
2019-04-01T10:24:09.741Z,52.20
2019-04-01T10:26:12.193Z,51.80
2019-04-01T10:28:13.682Z,52.40
2019-04-01T10:30:16.284Z,50.70
2019-04-01T10:32:17.680Z,52.50
2019-04-01T10:34:19.080Z,53.50
2019-04-01T10:36:20.522Z,51.20
2019-04-01T10:38:22.752Z,51.50
2019-04-01T10:40:24.155Z,51.10
2019-04-01T10:42:25.560Z,50.90
2019-04-01T10:44:26.945Z,51.90
2019-04-01T10:46:28.663Z,52.50
2019-04-01T10:48:30.489Z,52.40
2019-04-01T10:50:31.886Z,52.20
2019-04-01T10:52:33.322Z,51.20
2019-04-01T10:54:36.883Z,51.80
2019-04-01T10:59:20.751Z,51.10
2019-04-01T11:01:01.575Z,50.40
2019-04-01T11:03:05.917Z,49.30
2019-04-01T11:05:07.139Z,49.70
2019-04-01T11:07:08.432Z,51.60
2019-04-01T11:09:10.942Z,51.30
2019-04-01T11:11:12.222Z,51.00
2019-04-01T11:13:15.295Z,49.50
2019-04-01T11:15:17.642Z,49.10
2019-04-01T11:17:18.807Z,50.70
2019-04-01T11:19:20.222Z,48.30
2019-04-01T11:21:21.397Z,50.40
2019-04-01T11:23:22.533Z,50.50
2019-04-01T11:25:23.752Z,49.20
2019-04-01T11:27:24.989Z,48.80
2019-04-01T11:29:26.670Z,48.60
2019-04-01T11:31:28.257Z,49.00
2019-04-01T11:33:29.501Z,47.80
2019-04-01T11:35:30.777Z,47.70
2019-04-01T11:37:32.022Z,47.30
2019-04-01T11:39:33.265Z,47.50
2019-04-01T11:41:34.511Z,47.20
2019-04-01T11:43:35.987Z,46.70
2019-04-01T11:45:37.325Z,46.50
2019-04-01T11:47:38.618Z,47.60
2019-04-01T11:49:39.906Z,45.60
2019-04-01T11:51:41.225Z,45.90
2019-04-01T11:53:42.404Z,45.60
2019-04-01T11:55:43.800Z,44.80
2019-04-01T11:57:44.978Z,45.20
2019-04-01T11:59:46.180Z,43.90
2019-04-01T12:01:47.833Z,43.10
2019-04-01T12:03:48.915Z,43.00
2019-04-01T12:05:50.421Z,43.40
2019-04-01T12:07:51.588Z,42.90
2019-04-01T12:09:52.914Z,42.50
2019-04-01T12:11:54.258Z,41.00
2019-04-01T12:13:56.290Z,41.80
2019-04-01T12:15:58.453Z,41.00
2019-04-01T12:17:59.604Z,41.20
2019-04-01T12:20:00.949Z,40.70
2019-04-01T12:22:02.108Z,40.90
2019-04-01T12:24:03.245Z,39.80
2019-04-01T12:26:14.933Z,39.90
2019-04-01T12:28:08.073Z,40.40
2019-04-01T12:30:09.689Z,40.50
2019-04-01T12:32:10.814Z,40.20
2019-04-01T12:34:11.994Z,39.40
2019-04-01T12:36:13.457Z,39.30
2019-04-01T12:38:14.663Z,39.10
2019-04-01T12:40:15.932Z,38.20
2019-04-01T12:42:17.216Z,38.40
2019-04-01T12:44:18.425Z,38.10
2019-04-01T12:46:19.557Z,38.30
2019-04-01T12:48:21.054Z,37.00
2019-04-01T12:50:22.580Z,36.20
2019-04-01T12:52:23.719Z,37.20
2019-04-01T12:54:24.872Z,37.60
2019-04-01T12:56:26.066Z,37.60
2019-04-01T12:58:27.225Z,36.30
2019-04-01T13:00:29.325Z,35.60
2019-04-01T13:02:31.075Z,35.80
2019-04-01T13:04:35.845Z,34.80
2019-04-01T13:06:35.674Z,34.70
2019-04-01T13:08:36.849Z,35.20
2019-04-01T13:10:38.261Z,35.20
2019-04-01T13:12:39.597Z,34.50
2019-04-01T13:14:40.747Z,33.70
2019-04-01T13:16:41.989Z,33.50
2019-04-01T13:18:43.148Z,33.90
2019-04-01T13:20:44.315Z,33.50
2019-04-01T13:22:45.460Z,32.80
2019-04-01T13:24:46.599Z,33.40
2019-04-01T13:26:50.747Z,33.90
2019-04-01T13:28:50.798Z,33.40
2019-04-01T13:30:52.197Z,33.00
2019-04-01T13:32:53.340Z,32.50
2019-04-01T13:34:54.720Z,31.90
2019-04-01T13:36:56.109Z,31.90
2019-04-01T13:38:57.338Z,31.80
2019-04-01T13:40:58.757Z,31.80
2019-04-01T13:43:00.162Z,31.10
2019-04-01T13:45:02.080Z,31.10
2019-04-01T13:47:03.781Z,31.60
2019-04-01T13:49:05.187Z,31.20
2019-04-01T13:51:06.619Z,32.00
2019-04-01T13:53:07.846Z,31.60
2019-04-01T13:55:10.138Z,31.90
2019-04-01T13:57:13.016Z,31.80
2019-04-01T13:59:17.399Z,31.40
2019-04-01T14:01:18.153Z,30.80
2019-04-01T14:03:19.187Z,30.80
2019-04-01T14:05:20.722Z,31.80
2019-04-01T14:07:21.861Z,31.80
2019-04-01T14:09:23.089Z,31.20
2019-04-01T14:11:24.561Z,31.00
2019-04-01T14:13:25.773Z,30.10
2019-04-01T14:15:27.235Z,29.70
2019-04-01T14:17:28.672Z,30.10
2019-04-01T14:19:30.069Z,29.70
2019-04-01T14:21:31.494Z,29.80
2019-04-01T14:23:32.626Z,29.50
2019-04-01T14:25:34.999Z,29.50
2019-04-01T14:27:36.247Z,29.10
2019-04-01T14:29:37.441Z,29.70
2019-04-01T14:31:38.668Z,30.30
2019-04-01T14:33:39.933Z,29.70
2019-04-01T14:35:41.157Z,29.60
2019-04-01T14:37:42.562Z,30.00
2019-04-01T14:39:46.674Z,29.50
2019-04-01T14:41:47.877Z,29.40
2019-04-01T14:43:49.024Z,29.60
2019-04-01T14:45:50.181Z,29.80
2019-04-01T14:47:57.579Z,30.00
2019-04-01T14:49:54.789Z,29.60
2019-04-01T14:51:56.172Z,29.60
2019-04-01T14:53:57.280Z,29.50
2019-04-01T14:55:59.209Z,28.20
2019-04-01T14:58:00.612Z,29.30
2019-04-01T15:00:05.041Z,29.60
2019-04-01T15:02:06.209Z,30.40
2019-04-01T15:04:07.374Z,29.60
2019-04-01T15:06:08.801Z,29.20
2019-04-01T15:08:09.945Z,29.20
2019-04-01T15:10:12.211Z,28.40
2019-04-01T15:12:13.560Z,29.40
2019-04-01T15:14:15.261Z,28.50
2019-04-01T15:16:16.550Z,28.60
2019-04-01T15:18:17.794Z,28.40
2019-04-01T15:20:19.073Z,28.30
2019-04-01T15:22:20.213Z,30.00
2019-04-01T15:24:21.388Z,28.50
2019-04-01T15:26:22.609Z,28.50
2019-04-01T15:28:23.759Z,28.70
2019-04-01T15:30:25.134Z,29.30
2019-04-01T15:32:26.406Z,29.60
2019-04-01T15:34:27.652Z,29.00
2019-04-01T15:36:28.949Z,28.50
2019-04-01T15:38:30.106Z,28.40
2019-04-01T15:40:33.205Z,28.50
2019-04-01T15:42:34.786Z,28.30
2019-04-01T15:44:35.837Z,27.90
2019-04-01T15:46:37.296Z,28.00
2019-04-01T15:48:38.515Z,28.40
2019-04-01T15:50:39.869Z,29.40
2019-04-01T15:52:41.146Z,28.60
2019-04-01T15:54:42.339Z,28.90
2019-04-01T15:56:43.481Z,28.50
2019-04-01T15:58:44.652Z,29.00
2019-04-01T16:00:45.833Z,29.20
2019-04-01T16:02:47.118Z,29.30
2019-04-01T16:04:50.318Z,29.80
2019-04-01T16:06:51.791Z,29.30
2019-04-01T16:08:53.194Z,30.50
2019-04-01T16:10:55.327Z,31.90
2019-04-01T16:12:56.718Z,29.40
2019-04-01T16:14:57.869Z,29.90
2019-04-01T16:16:59.020Z,28.50
2019-04-01T16:19:00.580Z,29.80
2019-04-01T16:21:01.831Z,31.40
2019-04-01T16:23:03.123Z,30.60
2019-04-01T16:25:06.116Z,31.10
2019-04-01T16:27:07.285Z,31.10
2019-04-01T16:29:08.429Z,30.60
2019-04-01T16:31:09.687Z,32.20
2019-04-01T16:33:10.843Z,32.20
2019-04-01T16:35:12.486Z,31.60
2019-04-01T16:37:22.704Z,30.70
2019-04-01T16:39:23.872Z,31.90
2019-04-01T16:41:25.539Z,32.00
2019-04-01T16:43:26.797Z,30.90
2019-04-01T16:45:28.105Z,33.40
2019-04-01T16:47:29.555Z,33.90
2019-04-01T16:49:30.695Z,33.60
2019-04-01T16:51:31.979Z,32.50
2019-04-01T16:53:33.262Z,34.30
2019-04-01T16:55:36.146Z,34.70
2019-04-01T16:57:37.506Z,35.10
2019-04-01T16:59:38.657Z,37.40
2019-04-01T17:01:41.494Z,38.10
2019-04-01T17:03:43.218Z,37.90
2019-04-01T17:05:44.524Z,40.40
2019-04-01T17:07:46.075Z,39.80
2019-04-01T17:09:47.181Z,40.20
2019-04-01T17:11:48.368Z,42.30
2019-04-01T17:13:49.503Z,43.20
2019-04-01T17:15:50.663Z,40.90
2019-04-01T17:17:51.918Z,42.10
2019-04-01T17:19:53.065Z,42.40
2019-04-01T17:21:54.557Z,43.10
2019-04-01T17:23:55.709Z,42.30
2019-04-01T17:25:56.961Z,44.30
2019-04-01T17:27:58.096Z,44.40
2019-04-01T17:29:59.638Z,44.20
2019-04-01T17:32:00.826Z,45.30
2019-04-01T17:34:01.961Z,46.00
2019-04-01T17:36:03.901Z,45.40
2019-04-01T17:38:07.042Z,44.80
2019-04-01T17:40:08.580Z,44.20
2019-04-01T17:42:09.908Z,46.90
2019-04-01T17:44:11.279Z,47.10
2019-04-01T17:46:12.847Z,48.30
2019-04-01T17:48:14.079Z,47.40
2019-04-01T17:50:15.312Z,48.20
2019-04-01T17:52:16.570Z,47.40
2019-04-01T17:54:19.036Z,46.40
2019-04-01T17:56:20.795Z,47.90
2019-04-01T17:58:22.033Z,48.90
2019-04-01T18:00:25.230Z,47.70
2019-04-01T18:02:26.755Z,48.80
2019-04-01T18:04:27.893Z,49.00
2019-04-01T18:06:29.327Z,49.40
2019-04-01T18:08:30.684Z,48.40
2019-04-01T18:10:31.957Z,47.90
2019-04-01T18:12:33.108Z,49.10
2019-04-01T18:14:34.313Z,49.20
2019-04-01T18:16:38.965Z,47.10
2019-04-01T18:18:40.122Z,49.80
2019-04-01T18:20:41.433Z,49.80
2019-04-01T18:22:42.663Z,48.40
2019-04-01T18:24:43.809Z,50.10
2019-04-01T18:26:45.213Z,49.80
2019-04-01T18:28:47.390Z,50.20
2019-04-01T18:30:48.536Z,49.50
2019-04-01T18:32:53.361Z,49.40
2019-04-01T18:34:52.819Z,49.50
2019-04-01T18:36:58.267Z,50.00
2019-04-01T18:38:59.818Z,51.50
2019-04-01T18:41:01.062Z,49.90
2019-04-01T18:43:02.435Z,50.00
2019-04-01T18:45:12.904Z,51.10
2019-04-01T18:47:14.145Z,51.50
2019-04-01T18:49:17.138Z,51.20
2019-04-01T18:51:20.377Z,51.40
2019-04-01T18:53:21.620Z,52.20
2019-04-01T18:55:22.755Z,52.10
2019-04-01T18:57:23.969Z,51.50
2019-04-01T18:59:25.105Z,51.60
2019-04-01T19:01:26.349Z,52.80
2019-04-01T19:03:27.796Z,52.80
2019-04-01T19:05:28.930Z,51.60
2019-04-01T19:07:30.075Z,52.10
2019-04-01T19:09:32.669Z,52.40
2019-04-01T19:11:34.296Z,52.50
2019-04-01T19:13:35.799Z,52.60
2019-04-01T19:15:37.870Z,52.10
2019-04-01T19:17:40.054Z,52.40
2019-04-01T19:19:42.428Z,51.40
2019-04-01T19:21:43.952Z,52.30
2019-04-01T19:23:45.650Z,52.80
2019-04-01T19:25:46.675Z,52.30
2019-04-01T19:27:47.816Z,53.10
2019-04-01T19:29:49.053Z,52.80
2019-04-01T19:31:51.357Z,53.00
2019-04-01T19:33:52.637Z,53.40
2019-04-01T19:35:55.343Z,53.20
2019-04-01T19:37:56.777Z,53.30
2019-04-01T19:39:57.918Z,53.00
2019-04-01T19:41:59.162Z,53.10
2019-04-01T19:44:00.309Z,52.90
2019-04-01T19:46:01.701Z,52.50
2019-04-01T19:48:03.427Z,52.80
2019-04-01T19:50:09.167Z,52.70
2019-04-01T19:52:12.113Z,53.40
2019-04-01T19:54:13.673Z,53.40
2019-04-01T19:56:15.141Z,54.20
2019-04-01T19:58:16.300Z,53.60
2019-04-01T20:00:27.804Z,54.00
2019-04-01T20:02:21.834Z,53.90
2019-04-01T20:04:23.334Z,53.80
2019-04-01T20:06:25.029Z,54.70
2019-04-01T20:08:26.481Z,54.10
2019-04-01T20:10:28.490Z,54.20
2019-04-01T20:12:30.276Z,54.40
2019-04-01T20:14:31.430Z,54.90
2019-04-01T20:16:32.572Z,55.00
2019-04-01T20:18:33.727Z,55.10
2019-04-01T20:20:34.882Z,54.80
2019-04-01T20:22:36.014Z,54.50
2019-04-01T20:24:37.257Z,54.60
2019-04-01T20:26:38.491Z,55.00
2019-04-01T20:28:39.746Z,55.50
2019-04-01T20:30:42.572Z,55.70
2019-04-01T20:32:43.909Z,55.90
2019-04-01T20:34:56.356Z,56.00
2019-04-01T20:36:48.187Z,56.10
2019-04-01T20:38:49.422Z,56.30
2019-04-01T20:40:50.815Z,56.40
2019-04-01T20:42:51.953Z,57.20
2019-04-01T20:44:53.121Z,56.50
2019-04-01T20:46:54.588Z,56.80
2019-04-01T20:48:55.731Z,56.70
2019-04-01T20:50:57.563Z,57.10
2019-04-01T20:53:00.479Z,57.10
2019-04-01T20:55:02.498Z,57.60
2019-04-01T20:57:05.254Z,57.60
2019-04-01T20:59:06.645Z,57.50
2019-04-01T21:01:08.090Z,57.80
2019-04-01T21:03:09.226Z,58.20
2019-04-01T21:05:10.878Z,58.30
2019-04-01T21:07:11.891Z,57.40
2019-04-01T21:09:13.154Z,57.60
2019-04-01T21:11:14.288Z,57.60
2019-04-01T21:13:15.653Z,57.50
2019-04-01T21:15:16.909Z,57.50
2019-04-01T21:17:18.153Z,57.70
2019-04-01T21:19:19.304Z,57.70
2019-04-01T21:21:20.437Z,57.90
2019-04-01T21:23:21.573Z,57.90
2019-04-01T21:25:23.091Z,58.00
2019-04-01T21:27:24.469Z,58.50
2019-04-01T21:29:25.797Z,59.50
2019-04-01T21:31:26.934Z,58.80
2019-04-01T21:33:28.069Z,59.20
2019-04-01T21:35:29.613Z,59.40
2019-04-01T21:37:30.756Z,59.90
2019-04-01T21:39:31.926Z,59.80
2019-04-01T21:41:33.072Z,59.60
2019-04-01T21:43:34.209Z,59.40
2019-04-01T21:45:35.366Z,59.70
2019-04-01T21:47:36.538Z,59.50
2019-04-01T21:49:37.763Z,59.80
2019-04-01T21:51:38.910Z,59.70
2019-04-01T21:53:40.041Z,60.10
2019-04-01T21:55:41.198Z,60.30
2019-04-01T21:57:42.360Z,60.70
2019-04-01T21:59:43.906Z,60.50
2019-04-01T22:01:46.114Z,62.20
2019-04-01T22:03:47.400Z,61.40
2019-04-01T22:05:48.548Z,60.30
2019-04-01T22:07:49.994Z,62.30
2019-04-01T22:09:51.142Z,60.80
2019-04-01T22:11:52.283Z,62.80
2019-04-01T22:13:53.417Z,63.40
2019-04-01T22:15:54.669Z,64.80
2019-04-01T22:17:55.850Z,67.40
2019-04-01T22:19:57.340Z,67.00
2019-04-01T22:21:58.486Z,67.50
2019-04-01T22:23:59.625Z,68.50
2019-04-01T22:26:01.020Z,68.60
2019-04-01T22:28:02.153Z,69.20
2019-04-01T22:30:06.799Z,69.30
2019-04-01T22:32:08.281Z,69.90
2019-04-01T22:34:09.674Z,70.40
2019-04-01T22:36:11.453Z,71.10
2019-04-01T22:38:24.611Z,70.40
2019-04-01T22:40:16.778Z,71.10
2019-04-01T22:42:18.013Z,70.60
2019-04-01T22:44:19.161Z,70.30
2019-04-01T22:46:20.603Z,70.70
2019-04-01T22:48:21.748Z,71.20
2019-04-01T22:50:23.246Z,70.60
2019-04-01T22:52:24.384Z,70.80
2019-04-01T22:54:25.605Z,70.40
2019-04-01T22:56:27.248Z,71.60
2019-04-01T22:58:28.864Z,71.10
2019-04-01T23:00:30.270Z,71.30
2019-04-01T23:02:31.503Z,71.60
2019-04-01T23:04:32.640Z,71.20
2019-04-01T23:06:34.380Z,69.80
2019-04-01T23:08:36.646Z,70.20
2019-04-01T23:10:38.121Z,71.20
2019-04-01T23:12:39.340Z,70.60
2019-04-01T23:14:40.809Z,70.40
2019-04-01T23:16:41.965Z,69.60
2019-04-01T23:18:43.397Z,69.30
2019-04-01T23:20:45.054Z,69.20
2019-04-01T23:22:46.170Z,68.90
2019-04-01T23:24:47.330Z,68.80
2019-04-01T23:26:48.469Z,68.60
2019-04-01T23:28:49.910Z,69.20
2019-04-01T23:30:51.356Z,68.10
2019-04-01T23:32:52.910Z,68.20
2019-04-01T23:34:54.390Z,68.20
2019-04-01T23:36:55.531Z,69.60
2019-04-01T23:38:56.674Z,68.80
2019-04-01T23:40:57.821Z,69.00
2019-04-01T23:42:58.962Z,69.20
2019-04-01T23:45:00.443Z,69.20
2019-04-01T23:47:01.600Z,69.70
2019-04-01T23:49:03.529Z,69.70
2019-04-01T23:51:04.696Z,70.80
2019-04-01T23:53:05.841Z,70.40
2019-04-01T23:55:07.377Z,70.40
2019-04-01T23:57:08.520Z,71.10
2019-04-01T23:59:09.706Z,71.00
